createdAt,value
2019-05-11T00:00:04.246Z,62.93
2019-05-11T00:02:35.019Z,62.97
2019-05-11T00:05:04.654Z,62.89
2019-05-11T00:07:34.165Z,62.81
2019-05-11T00:10:04.380Z,62.58
2019-05-11T00:12:34.955Z,62.85
2019-05-11T00:15:04.721Z,62.99
2019-05-11T00:17:34.246Z,62.88
2019-05-11T00:20:03.793Z,63.02
2019-05-11T00:22:33.305Z,63.31
2019-05-11T00:25:02.846Z,63.33
2019-05-11T00:27:33.673Z,63.30
2019-05-11T00:30:03.324Z,63.47
2019-05-11T00:32:32.991Z,63.66
2019-05-11T00:35:03.425Z,63.83
2019-05-11T00:37:34.549Z,63.35
2019-05-11T00:40:13.894Z,62.94
2019-05-11T00:42:35.612Z,62.70
2019-05-11T00:45:05.635Z,62.88
2019-05-11T00:47:36.136Z,62.97
2019-05-11T00:50:06.298Z,63.28
2019-05-11T00:52:35.836Z,63.36
2019-05-11T00:55:05.404Z,63.28
2019-05-11T00:57:34.944Z,62.86
2019-05-11T01:00:04.631Z,62.93
2019-05-11T01:02:35.222Z,63.62
2019-05-11T01:05:05.076Z,63.92
2019-05-11T01:07:34.561Z,63.81
2019-05-11T01:10:04.330Z,63.70
2019-05-11T01:12:33.828Z,63.80
2019-05-11T01:15:03.425Z,64.31
2019-05-11T01:17:32.945Z,64.96
2019-05-11T01:20:02.461Z,64.98
2019-05-11T01:22:31.962Z,64.94
2019-05-11T01:25:01.471Z,65.44
2019-05-11T01:27:30.967Z,65.87
2019-05-11T01:30:00.504Z,66.02
2019-05-11T01:32:30.031Z,65.99
2019-05-11T01:34:59.628Z,65.85
2019-05-11T01:37:29.150Z,66.24
2019-05-11T01:39:58.658Z,66.07
2019-05-11T01:42:28.168Z,65.90
2019-05-11T01:44:57.685Z,66.28
2019-05-11T01:47:27.195Z,66.98
2019-05-11T01:49:56.716Z,67.69
2019-05-11T01:52:26.234Z,68.14
2019-05-11T01:54:55.768Z,68.65
2019-05-11T01:57:25.287Z,68.83
2019-05-11T01:59:54.800Z,68.58
2019-05-11T02:02:24.308Z,68.38
2019-05-11T02:05:12.857Z,68.36
2019-05-11T02:07:42.374Z,68.25
2019-05-11T02:10:11.968Z,68.48
2019-05-11T02:12:41.476Z,68.31
2019-05-11T02:15:12.081Z,67.66
2019-05-11T02:17:41.608Z,67.06
2019-05-11T02:20:11.268Z,66.52
2019-05-11T02:22:40.782Z,66.45
2019-05-11T02:25:10.367Z,66.12
2019-05-11T02:27:39.874Z,66.07
2019-05-11T02:30:09.670Z,65.47
2019-05-11T02:32:39.167Z,65.40
2019-05-11T02:35:09.536Z,65.16
2019-05-11T02:37:39.040Z,65.10
2019-05-11T02:40:09.126Z,65.22
2019-05-11T02:42:38.626Z,65.01
2019-05-11T02:45:10.135Z,65.10
2019-05-11T02:47:39.651Z,64.64
2019-05-11T02:50:09.684Z,64.58
2019-05-11T02:52:39.287Z,64.31
2019-05-11T02:55:09.055Z,65.19
2019-05-11T02:57:38.561Z,65.26
2019-05-11T03:00:08.544Z,65.29
2019-05-11T03:02:38.063Z,65.13
2019-05-11T03:05:08.679Z,65.24
2019-05-11T03:07:38.177Z,65.24
2019-05-11T03:10:07.711Z,64.95
2019-05-11T03:12:37.285Z,65.03
2019-05-11T03:15:06.918Z,65.04
2019-05-11T03:17:36.459Z,65.06
2019-05-11T03:20:06.163Z,64.93
2019-05-11T03:22:35.688Z,64.99
2019-05-11T03:25:05.313Z,65.18
2019-05-11T03:27:34.812Z,64.82
2019-05-11T03:30:04.973Z,65.31
2019-05-11T03:32:34.467Z,65.39
2019-05-11T03:35:04.389Z,65.62
2019-05-11T03:37:33.888Z,65.75
2019-05-11T03:40:03.424Z,66.18
2019-05-11T03:42:32.949Z,67.16
2019-05-11T03:45:02.468Z,67.67
2019-05-11T03:47:31.997Z,68.00
2019-05-11T03:50:01.646Z,68.00
2019-05-11T03:52:31.094Z,68.74
2019-05-11T03:55:00.603Z,68.96
2019-05-11T03:57:30.113Z,68.66
2019-05-11T03:59:59.618Z,68.06
2019-05-11T04:02:29.126Z,67.92
2019-05-11T04:04:58.658Z,67.75
2019-05-11T04:07:28.159Z,67.71
2019-05-11T04:09:57.697Z,67.43
2019-05-11T04:12:34.919Z,67.73
2019-05-11T04:14:58.437Z,67.79
2019-05-11T04:17:27.939Z,68.23
2019-05-11T04:19:57.470Z,68.67
2019-05-11T04:22:26.977Z,69.03
2019-05-11T04:24:56.510Z,69.48
2019-05-11T04:27:26.008Z,69.58
2019-05-11T04:29:56.491Z,69.57
2019-05-11T04:32:25.999Z,69.40
2019-05-11T04:34:56.579Z,69.47
2019-05-11T04:37:26.094Z,69.18
2019-05-11T04:39:55.626Z,69.04
2019-05-11T04:42:25.129Z,69.11
2019-05-11T04:44:54.700Z,69.12
2019-05-11T04:47:24.211Z,68.72
2019-05-11T04:49:53.805Z,68.63
2019-05-11T04:52:23.327Z,68.83
2019-05-11T04:54:52.881Z,68.43
2019-05-11T04:57:22.422Z,68.68
2019-05-11T04:59:51.932Z,68.97
2019-05-11T05:02:21.851Z,68.82
2019-05-11T05:04:52.511Z,69.18
2019-05-11T05:07:22.027Z,69.97
2019-05-11T05:09:51.549Z,69.37
2019-05-11T05:12:21.063Z,69.10
2019-05-11T05:14:50.574Z,69.21
2019-05-11T05:17:20.185Z,68.91
2019-05-11T05:19:49.715Z,68.89
2019-05-11T05:22:19.293Z,68.56
2019-05-11T05:24:48.791Z,68.87
2019-05-11T05:27:18.296Z,69.04
2019-05-11T05:29:47.801Z,68.72
2019-05-11T05:32:17.380Z,68.50
2019-05-11T05:34:46.892Z,68.27
2019-05-11T05:37:16.427Z,68.40
2019-05-11T05:39:45.946Z,68.34
2019-05-11T05:42:15.489Z,68.29
2019-05-11T05:44:45.017Z,67.38
2019-05-11T05:47:14.558Z,67.02
2019-05-11T05:49:44.903Z,67.39
2019-05-11T05:52:14.608Z,67.74
2019-05-11T05:54:44.141Z,67.37
2019-05-11T05:57:13.659Z,67.00
2019-05-11T05:59:43.250Z,66.62
2019-05-11T06:02:12.776Z,67.11
2019-05-11T06:04:42.327Z,67.27
2019-05-11T06:07:11.858Z,67.27
2019-05-11T06:09:41.411Z,66.54
2019-05-11T06:12:10.946Z,66.53
2019-05-11T06:14:40.471Z,66.56
2019-05-11T06:17:10.023Z,66.01
2019-05-11T06:19:39.548Z,65.73
2019-05-11T06:22:09.187Z,66.07
2019-05-11T06:24:38.675Z,65.18
2019-05-11T06:27:08.207Z,64.68
2019-05-11T06:29:37.729Z,65.22
2019-05-11T06:32:07.260Z,65.35
2019-05-11T06:34:36.798Z,65.16
2019-05-11T06:37:06.311Z,65.22
2019-05-11T06:39:36.873Z,64.13
2019-05-11T06:42:06.551Z,64.57
2019-05-11T06:44:36.060Z,63.92
2019-05-11T06:47:05.610Z,64.62
2019-05-11T06:49:35.109Z,64.29
2019-05-11T06:52:04.794Z,64.16
2019-05-11T06:54:34.285Z,63.70
2019-05-11T06:57:03.796Z,63.98
2019-05-11T06:59:33.288Z,63.27
2019-05-11T07:02:02.795Z,62.46
2019-05-11T07:04:32.313Z,63.49
2019-05-11T07:07:01.834Z,63.28
2019-05-11T07:09:31.337Z,63.42
2019-05-11T07:12:00.891Z,63.32
2019-05-11T07:14:30.423Z,63.60
2019-05-11T07:16:59.916Z,63.79
2019-05-11T07:19:29.412Z,63.51
2019-05-11T07:21:58.914Z,64.19
2019-05-11T07:24:28.402Z,64.89
2019-05-11T07:26:57.900Z,65.50
2019-05-11T07:29:27.382Z,65.55
2019-05-11T07:32:00.656Z,67.01
2019-05-11T07:34:28.092Z,66.02
2019-05-11T07:36:57.743Z,66.02
2019-05-11T07:39:27.918Z,66.15
2019-05-11T07:41:58.479Z,66.72
2019-05-11T07:44:38.236Z,66.84
2019-05-11T07:46:59.232Z,66.41
2019-05-11T07:49:29.287Z,65.33
2019-05-11T07:51:58.906Z,66.24
2019-05-11T07:54:28.369Z,66.79
2019-05-11T07:56:58.502Z,66.75
2019-05-11T07:59:28.995Z,66.84
2019-05-11T08:01:58.608Z,66.69
2019-05-11T08:04:28.912Z,67.67
2019-05-11T08:06:58.629Z,67.07
2019-05-11T08:09:28.131Z,67.53
2019-05-11T08:11:58.458Z,68.19
2019-05-11T08:14:29.011Z,68.00
2019-05-11T08:16:59.454Z,67.60
2019-05-11T08:19:29.176Z,67.80
2019-05-11T08:21:58.708Z,69.69
2019-05-11T08:24:28.570Z,69.92
2019-05-11T08:26:58.443Z,69.45
2019-05-11T08:29:28.090Z,69.86
2019-05-11T08:31:58.115Z,68.76
2019-05-11T08:34:28.778Z,68.37
2019-05-11T08:36:58.549Z,68.09
2019-05-11T08:39:29.178Z,67.93
2019-05-11T08:41:59.174Z,68.77
2019-05-11T08:44:29.000Z,68.27
2019-05-11T08:46:58.534Z,68.05
2019-05-11T08:49:28.856Z,68.57
2019-05-11T08:51:58.457Z,69.23
2019-05-11T08:54:28.834Z,69.54
2019-05-11T08:56:59.532Z,69.92
2019-05-11T08:59:29.990Z,68.82
2019-05-11T09:01:59.552Z,70.69
2019-05-11T09:04:29.097Z,71.51
2019-05-11T09:06:58.847Z,71.68
2019-05-11T09:09:28.855Z,71.42
2019-05-11T09:11:59.035Z,70.69
2019-05-11T09:14:28.635Z,70.54
2019-05-11T09:16:58.108Z,71.23
2019-05-11T09:19:28.439Z,70.43
2019-05-11T09:22:02.900Z,70.75
2019-05-11T09:24:30.497Z,71.32
2019-05-11T09:27:00.009Z,70.45
2019-05-11T09:29:29.513Z,69.95
2019-05-11T09:31:59.987Z,69.59
2019-05-11T09:34:29.511Z,70.52
2019-05-11T09:36:59.673Z,71.11
2019-05-11T09:39:29.142Z,71.56
2019-05-11T09:41:58.701Z,71.64
2019-05-11T09:44:29.024Z,71.11
2019-05-11T09:47:01.896Z,70.54
2019-05-11T09:49:44.058Z,71.50
2019-05-11T09:52:01.092Z,71.50
2019-05-11T09:54:30.594Z,71.33
2019-05-11T09:57:00.096Z,71.84
2019-05-11T09:59:29.614Z,72.31
2019-05-11T10:01:59.171Z,72.36
2019-05-11T10:04:29.013Z,72.15
2019-05-11T10:06:58.707Z,72.17
2019-05-11T10:09:28.256Z,71.61
2019-05-11T10:11:58.436Z,70.80
2019-05-11T10:14:28.832Z,69.67
2019-05-11T10:16:58.689Z,69.09
2019-05-11T10:19:28.614Z,68.88
2019-05-11T10:21:58.297Z,68.21
2019-05-11T10:24:28.479Z,68.52
2019-05-11T10:26:58.082Z,69.13
2019-05-11T10:29:29.055Z,68.07
2019-05-11T10:31:58.944Z,68.27
2019-05-11T10:34:28.754Z,68.43
2019-05-11T10:36:58.310Z,68.64
2019-05-11T10:39:28.106Z,68.89
2019-05-11T10:41:58.458Z,68.96
2019-05-11T10:44:28.309Z,69.37
2019-05-11T10:46:58.935Z,68.62
2019-05-11T10:49:29.091Z,69.20
2019-05-11T10:51:58.900Z,70.27
2019-05-11T10:54:28.966Z,70.27
2019-05-11T10:56:58.512Z,69.89
2019-05-11T10:59:28.488Z,69.92
2019-05-11T11:01:58.998Z,69.75
2019-05-11T11:04:29.008Z,69.39
2019-05-11T11:06:59.540Z,70.10
2019-05-11T11:09:29.061Z,69.27
2019-05-11T11:11:58.573Z,69.02
2019-05-11T11:14:28.794Z,68.77
2019-05-11T11:16:58.645Z,67.91
2019-05-11T11:19:29.052Z,67.84
2019-05-11T11:22:17.695Z,68.34
2019-05-11T11:24:29.814Z,68.78
2019-05-11T11:26:59.309Z,68.58
2019-05-11T11:29:28.984Z,67.88
2019-05-11T11:31:59.271Z,67.76
2019-05-11T11:34:28.790Z,66.55
2019-05-11T11:36:58.284Z,66.35
2019-05-11T11:39:28.443Z,65.41
2019-05-11T11:41:58.563Z,65.27
2019-05-11T11:44:28.737Z,65.13
2019-05-11T11:46:59.144Z,64.65
2019-05-11T11:49:28.824Z,64.43
2019-05-11T11:51:58.319Z,64.24
2019-05-11T11:54:28.682Z,64.57
2019-05-11T11:56:59.090Z,64.66
2019-05-11T11:59:28.952Z,64.29
2019-05-11T12:01:59.386Z,63.85
2019-05-11T12:04:28.887Z,63.71
2019-05-11T12:06:58.395Z,63.57
2019-05-11T12:09:28.692Z,63.47
2019-05-11T12:11:58.465Z,63.10
2019-05-11T12:14:28.406Z,62.97
2019-05-11T12:17:07.471Z,62.67
2019-05-11T12:19:29.116Z,61.83
2019-05-11T12:21:58.629Z,62.43
2019-05-11T12:24:28.867Z,62.31
2019-05-11T12:26:58.828Z,62.02
2019-05-11T12:29:28.376Z,61.97
2019-05-11T12:31:59.588Z,61.85
2019-05-11T12:34:29.095Z,62.14
2019-05-11T12:36:58.611Z,60.47
2019-05-11T12:39:28.397Z,60.26
2019-05-11T12:41:58.390Z,60.03
2019-05-11T12:44:28.521Z,60.20
2019-05-11T12:46:58.466Z,59.90
2019-05-11T12:49:28.941Z,59.89
2019-05-11T12:51:59.553Z,59.35
2019-05-11T12:54:29.046Z,59.35
2019-05-11T12:56:58.559Z,58.66
2019-05-11T12:59:28.083Z,58.94
2019-05-11T13:01:59.036Z,59.25
2019-05-11T13:04:28.756Z,59.33
2019-05-11T13:06:58.329Z,58.46
2019-05-11T13:09:28.832Z,58.07
2019-05-11T13:11:58.891Z,58.47
2019-05-11T13:14:28.444Z,58.05
2019-05-11T13:16:58.996Z,59.14
2019-05-11T13:19:28.640Z,59.36
2019-05-11T13:21:58.944Z,58.55
2019-05-11T13:24:28.640Z,58.83
2019-05-11T13:26:59.769Z,58.43
2019-05-11T13:29:30.137Z,58.01
2019-05-11T13:31:59.652Z,57.81
2019-05-11T13:34:31.465Z,57.11
2019-05-11T13:37:00.389Z,57.47
2019-05-11T13:39:29.894Z,56.67
2019-05-11T13:41:59.424Z,55.83
2019-05-11T13:44:28.933Z,57.61
2019-05-11T13:46:58.782Z,56.27
2019-05-11T13:49:28.483Z,54.60
2019-05-11T13:51:58.505Z,55.48
2019-05-11T13:54:29.772Z,55.20
2019-05-11T13:56:59.403Z,55.37
2019-05-11T13:59:28.933Z,54.70
2019-05-11T14:01:58.467Z,55.48
2019-05-11T14:04:28.246Z,54.78
2019-05-11T14:06:58.629Z,54.65
2019-05-11T14:09:28.999Z,54.26
2019-05-11T14:11:58.613Z,54.59
2019-05-11T14:14:28.984Z,54.05
2019-05-11T14:16:59.011Z,54.60
2019-05-11T14:19:29.210Z,55.25
2019-05-11T14:22:00.063Z,53.99
2019-05-11T14:24:29.593Z,53.81
2019-05-11T14:26:59.094Z,54.74
2019-05-11T14:29:28.642Z,53.54
2019-05-11T14:31:58.279Z,53.46
2019-05-11T14:34:28.452Z,53.39
2019-05-11T14:36:58.374Z,53.51
2019-05-11T14:39:28.152Z,53.74
2019-05-11T14:41:58.656Z,52.30
2019-05-11T14:44:28.761Z,52.55
2019-05-11T14:46:59.283Z,52.47
2019-05-11T14:49:29.017Z,53.09
2019-05-11T14:51:58.525Z,53.45
2019-05-11T14:54:28.822Z,52.79
2019-05-11T14:56:59.588Z,53.54
2019-05-11T14:59:29.140Z,53.84
2019-05-11T15:01:58.670Z,52.91
2019-05-11T15:04:28.784Z,53.39
2019-05-11T15:06:58.414Z,52.91
2019-05-11T15:09:28.561Z,53.61
2019-05-11T15:11:58.322Z,54.16
2019-05-11T15:14:28.820Z,53.89
2019-05-11T15:16:58.509Z,53.79
2019-05-11T15:19:28.093Z,52.68
2019-05-11T15:21:58.158Z,53.41
2019-05-11T15:24:28.745Z,52.31
2019-05-11T15:26:58.517Z,52.49
2019-05-11T15:29:28.734Z,51.25
2019-05-11T15:31:58.322Z,50.05
2019-05-11T15:34:28.889Z,50.32
2019-05-11T15:36:58.542Z,50.68
2019-05-11T15:39:28.724Z,50.02
2019-05-11T15:42:09.646Z,50.09
2019-05-11T15:44:29.832Z,49.35
2019-05-11T15:46:59.412Z,48.32
2019-05-11T15:49:29.935Z,48.55
2019-05-11T15:51:59.456Z,47.49
2019-05-11T15:54:29.030Z,47.22
2019-05-11T15:56:59.980Z,47.80
2019-05-11T15:59:30.533Z,47.72
2019-05-11T16:02:01.268Z,48.76
2019-05-11T16:04:30.865Z,46.21
2019-05-11T16:07:00.383Z,48.07
2019-05-11T16:09:29.916Z,46.93
2019-05-11T16:11:59.457Z,46.80
2019-05-11T16:14:28.996Z,45.75
2019-05-11T16:16:58.601Z,46.12
2019-05-11T16:19:28.292Z,44.30
2019-05-11T16:21:57.803Z,45.07
2019-05-11T16:24:27.442Z,43.12
2019-05-11T16:26:58.301Z,43.33
2019-05-11T16:29:28.149Z,41.59
2019-05-11T16:31:57.963Z,42.69
2019-05-11T16:34:27.862Z,43.17
2019-05-11T16:36:57.549Z,43.50
2019-05-11T16:39:28.008Z,42.82
2019-05-11T16:41:58.613Z,43.55
2019-05-11T16:44:28.112Z,42.44
2019-05-11T16:46:58.677Z,41.75
2019-05-11T16:49:32.491Z,42.66
2019-05-11T16:52:01.561Z,43.41
2019-05-11T16:54:31.065Z,43.26
2019-05-11T16:57:00.576Z,42.93
2019-05-11T16:59:30.091Z,43.23
2019-05-11T17:01:59.618Z,43.81
2019-05-11T17:04:31.268Z,42.01
2019-05-11T17:07:00.472Z,42.04
2019-05-11T17:09:30.056Z,42.36
2019-05-11T17:11:59.592Z,42.62
2019-05-11T17:14:29.150Z,43.44
2019-05-11T17:16:58.727Z,43.40
2019-05-11T17:19:42.266Z,43.25
2019-05-11T17:21:59.436Z,43.30
2019-05-11T17:24:28.982Z,43.91
2019-05-11T17:26:58.502Z,43.56
2019-05-11T17:29:28.043Z,44.09
2019-05-11T17:31:58.061Z,43.86
2019-05-11T17:34:28.506Z,43.72
2019-05-11T17:37:00.182Z,44.05
2019-05-11T17:39:29.276Z,45.73
2019-05-11T17:41:58.794Z,47.89
2019-05-11T17:44:28.293Z,49.13
2019-05-11T17:46:57.940Z,50.52
2019-05-11T17:49:27.770Z,50.09
2019-05-11T17:51:57.403Z,51.24
2019-05-11T17:54:28.445Z,50.88
2019-05-11T17:56:58.088Z,51.28
2019-05-11T17:59:28.264Z,52.69
2019-05-11T18:01:59.034Z,52.52
2019-05-11T18:04:28.716Z,52.24
2019-05-11T18:06:58.900Z,52.26
2019-05-11T18:09:29.435Z,52.57
2019-05-11T18:11:58.952Z,52.56
2019-05-11T18:14:29.455Z,53.37
2019-05-11T18:16:59.135Z,53.80
2019-05-11T18:19:28.648Z,53.35
2019-05-11T18:21:58.230Z,53.47
2019-05-11T18:24:28.743Z,53.37
2019-05-11T18:26:59.097Z,53.85
2019-05-11T18:29:29.024Z,53.81
2019-05-11T18:31:58.471Z,54.54
2019-05-11T18:34:28.017Z,54.84
2019-05-11T18:36:57.936Z,54.50
2019-05-11T18:39:28.619Z,55.33
2019-05-11T18:41:58.823Z,55.30
2019-05-11T18:44:28.457Z,55.11
2019-05-11T18:46:59.350Z,55.25
2019-05-11T18:49:28.870Z,55.98
2019-05-11T18:51:58.689Z,55.25
2019-05-11T18:54:28.323Z,55.24
2019-05-11T18:56:58.889Z,55.60
2019-05-11T18:59:29.085Z,56.41
2019-05-11T19:01:58.755Z,55.96
2019-05-11T19:04:28.844Z,57.08
2019-05-11T19:07:12.832Z,57.05
2019-05-11T19:09:30.727Z,56.83
2019-05-11T19:14:38.840Z,57.00
2019-05-11T19:17:08.446Z,56.86
2019-05-11T19:19:42.935Z,57.06
2019-05-11T19:22:13.603Z,56.80
2019-05-11T19:24:43.107Z,56.96
2019-05-11T19:27:12.608Z,57.17
2019-05-11T19:29:42.477Z,57.43
2019-05-11T19:32:11.992Z,57.98
2019-05-11T19:34:42.608Z,58.33
2019-05-11T19:37:12.115Z,58.11
2019-05-11T19:39:41.691Z,58.25
2019-05-11T19:42:12.257Z,58.38
2019-05-11T19:44:42.752Z,59.64
2019-05-11T19:47:12.270Z,58.90
2019-05-11T19:49:41.824Z,59.07
2019-05-11T19:52:11.408Z,59.07
2019-05-11T19:54:41.891Z,59.81
2019-05-11T19:57:11.427Z,59.14
2019-05-11T19:59:41.893Z,59.22
2019-05-11T20:02:11.436Z,59.12
2019-05-11T20:04:40.951Z,59.48
2019-05-11T20:07:10.475Z,60.06
2019-05-11T20:09:39.998Z,59.39
2019-05-11T20:12:09.534Z,59.05
2019-05-11T20:14:39.057Z,58.72
2019-05-11T20:17:09.157Z,60.23
2019-05-11T20:19:39.753Z,58.75
2019-05-11T20:22:09.356Z,58.82
2019-05-11T20:24:40.639Z,59.75
2019-05-11T20:27:10.704Z,59.69
2019-05-11T20:29:40.158Z,59.06
2019-05-11T20:32:09.684Z,58.82
2019-05-11T20:34:39.203Z,58.77
2019-05-11T20:37:08.749Z,59.00
2019-05-11T20:39:38.277Z,59.23
2019-05-11T20:42:08.716Z,59.94
2019-05-11T20:44:38.306Z,59.42
2019-05-11T20:47:07.900Z,59.63
2019-05-11T20:49:38.644Z,59.43
2019-05-11T20:52:08.723Z,59.27
2019-05-11T20:54:38.656Z,59.14
2019-05-11T20:57:09.004Z,59.13
2019-05-11T20:59:38.637Z,59.17
2019-05-11T21:02:09.278Z,58.93
2019-05-11T21:04:40.077Z,58.67
2019-05-11T21:07:09.598Z,58.41
2019-05-11T21:09:39.182Z,58.20
2019-05-11T21:12:08.678Z,57.55
2019-05-11T21:14:38.648Z,57.70
2019-05-11T21:17:09.062Z,57.43
2019-05-11T21:19:39.768Z,56.84
2019-05-11T21:22:09.887Z,56.65
2019-05-11T21:24:39.490Z,56.20
2019-05-11T21:27:09.001Z,56.22
2019-05-11T21:29:38.819Z,56.16
2019-05-11T21:32:08.312Z,56.38
2019-05-11T21:34:38.338Z,56.17
2019-05-11T21:37:08.897Z,56.08
2019-05-11T21:39:38.401Z,55.89
2019-05-11T21:42:07.921Z,56.05
2019-05-11T21:44:37.475Z,56.04
2019-05-11T21:47:07.747Z,55.72
2019-05-11T21:49:38.372Z,55.88
2019-05-11T21:52:07.924Z,55.92
2019-05-11T21:54:38.656Z,55.94
2019-05-11T21:57:08.430Z,56.21
2019-05-11T21:59:38.072Z,56.80
2019-05-11T22:02:08.296Z,56.76
2019-05-11T22:04:39.786Z,56.63
2019-05-11T22:07:09.287Z,56.39
2019-05-11T22:09:38.786Z,56.39
2019-05-11T22:12:10.839Z,56.39
2019-05-11T22:14:39.504Z,56.21
2019-05-11T22:17:09.094Z,56.25
2019-05-11T22:19:40.532Z,56.19
2019-05-11T22:22:21.129Z,56.26
2019-05-11T22:24:41.267Z,56.37
2019-05-11T22:27:11.750Z,56.34
2019-05-11T22:29:41.281Z,56.29
2019-05-11T22:32:10.784Z,56.19
2019-05-11T22:34:40.318Z,55.86
2019-05-11T22:37:09.865Z,56.02
2019-05-11T22:39:40.145Z,56.24
2019-05-11T22:42:09.707Z,56.47
2019-05-11T22:44:39.208Z,56.77
2019-05-11T22:47:09.052Z,57.42
2019-05-11T22:49:38.655Z,57.57
2019-05-11T22:52:08.773Z,58.30
2019-05-11T22:54:38.500Z,58.09
2019-05-11T22:57:08.890Z,57.81
2019-05-11T22:59:38.593Z,57.65
2019-05-11T23:02:10.676Z,57.46
2019-05-11T23:04:39.300Z,57.42
2019-05-11T23:07:08.851Z,57.25
2019-05-11T23:09:38.355Z,56.64
2019-05-11T23:12:09.014Z,56.86
2019-05-11T23:14:38.727Z,56.54
2019-05-11T23:17:08.275Z,56.43
2019-05-11T23:19:38.270Z,56.99
2019-05-11T23:22:08.334Z,57.74
2019-05-11T23:24:38.171Z,58.17
2019-05-11T23:27:08.102Z,57.98
2019-05-11T23:29:38.377Z,58.22
2019-05-11T23:32:08.678Z,58.76
2019-05-11T23:34:38.896Z,58.95
2019-05-11T23:37:08.396Z,59.61
2019-05-11T23:39:38.714Z,59.59
2019-05-11T23:42:08.311Z,59.67
2019-05-11T23:44:37.808Z,59.38
2019-05-11T23:47:07.406Z,59.64
2019-05-11T23:49:36.972Z,59.43
2019-05-11T23:52:07.644Z,59.92
2019-05-11T23:54:38.217Z,59.88
2019-05-11T23:57:09.499Z,60.00
2019-05-11T23:59:39.122Z,59.96
